Austin, TX (78772)

8:22 AM CDT on August 01, 2015 (GMT -0500)
Dawson - Gumbo Gulch | | Change Station
CLOSE
Current Station
Personal Weather Station
Location: Austin, TX
Elevation: 614 ft
Nearby Weather Stations

Elev 614 ft 30.23 °N, 97.76 °W | Updated 2 minutes ago

Partly Cloudy
Partly Cloudy
78.0 °F
Feels Like 80 °F
N
0.0
Wind Variable Wind from North
Gusts 1.0 mph

Today
High -- | Low -- °F
--% Chance of Precip.
Yesterday
High -- | Low -- °F
Precip. -- in
6:49 AM 8:24 PM
Full, 98% visible
Pressure 29.96 in
Visibility 10.0 miles
Clouds Few 3000 ft
Few 12000 ft
Mostly Cloudy 25000 ft
Heat Index 80 °F
Dew Point 66 °F
Humidity 66%
Rainfall 0.00 in
Snow Depth Not available.
UV 0 out of 12
Pollen 8.50 out of 12
Air Quality Not available.
Flu Activity Not available.
METAR KAUS 011253Z 00000KT 10SM FEW030 FEW120 BKN250 23/19 A3000 RMK AO2 SLP146 T02330189

More Conditions Fewer Conditions

Pressure 29.96 in
Visibility 10.0 miles
Clouds Few 3000 ft
Few 12000 ft
Mostly Cloudy 25000 ft
Heat Index 80 °F
Dew Point 66 °F
Humidity 66%
Rainfall 0.00 in
Snow Depth Not available.
UV 0 out of 12
Pollen 8.50 out of 12
Air Quality Not available.
Flu Activity Not available.
METAR KAUS 011253Z 00000KT 10SM FEW030 FEW120 BKN250 23/19 A3000 RMK AO2 SLP146 T02330189

More Conditions Fewer Conditions

10-Day Weather Forecast

×

Almanac

Astronomy

Aug. 01, 2015 Rise Set
Actual Time
Civil Twilight
Nautical Twilight
Astronomical Twilight
Moon
Length of Visible Light
Length of Day
Tomorrow will be .
, % of the Moon is Illuminated

Today's Extremes

State Highs State Lows

Community

WunderPhotos

Upload Photos

1,842,939 photos uploaded!

WunderBlogs® & News

Nearby

Air Quality

  Air Quality AQ Index Pollutant
Not available.

Snow Depth

Station Depth Elevation

Earthquake Activity

City Distance Mag. Time & Date
Minimum magnitude displayed is 2.5.

Coastal Water Temperatures

Place Temperature

Stations

Nearby Weather Stations

Station Location Temp. Windchill Dew Point Humidity Wind Precip. Elev Updated Type